Time;durP1;ratioP1;P1;durP2;ratioP2;P2;SDS_P1;SDS_P2;PMS_P1;PMS_P2;Temp;Humidity;BMP_temperature;BMP_pressure;BME280_temperature;BME280_humidity;BME280_pressure;Samples;Min_cycle;Max_cycle;Signal;HPM_P1;HPM_P2
2023/09/24 00:02:10;;;;;;;12.40;2.58;;;21.50;61.70;;;;;;5092887;28;20032;-55
2023/09/24 00:04:36;;;;;;;8.95;2.80;;;21.50;61.60;;;;;;5092928;28;20027;-54
2023/09/24 00:07:02;;;;;;;10.77;2.63;;;21.50;61.10;;;;;;5092628;28;20020;-52
2023/09/24 00:09:28;;;;;;;5.53;2.40;;;21.50;61.20;;;;;;5092792;28;20160;-54
2023/09/24 00:11:54;;;;;;;9.50;2.50;;;21.50;61.20;;;;;;5092821;28;20111;-55
2023/09/24 00:14:20;;;;;;;11.02;3.17;;;21.50;61.10;;;;;;5092805;28;20024;-55
2023/09/24 00:16:46;;;;;;;6.35;2.65;;;21.50;61.00;;;;;;5092714;28;20114;-55
2023/09/24 00:19:12;;;;;;;8.55;2.58;;;21.50;60.90;;;;;;5092653;28;20028;-53
2023/09/24 00:21:38;;;;;;;9.85;2.88;;;21.50;60.70;;;;;;5092560;28;20054;-48
2023/09/24 00:24:05;;;;;;;8.95;2.63;;;21.50;61.00;;;;;;5092710;28;20499;-55
2023/09/24 00:26:31;;;;;;;7.88;2.53;;;21.50;60.50;;;;;;5092558;28;20020;-52
2023/09/24 00:28:56;;;;;;;13.48;2.80;;;21.40;60.50;;;;;;5092287;28;20032;-55
2023/09/24 00:31:23;;;;;;;7.78;2.50;;;21.40;60.20;;;;;;5092277;28;20392;-55
2023/09/24 00:33:52;;;;;;;5.28;2.60;;;21.40;60.70;;;;;;5091168;28;20032;-54
2023/09/24 00:36:19;;;;;;;11.75;2.88;;;21.40;60.60;;;;;;5092599;28;20391;-50
2023/09/24 00:38:45;;;;;;;6.00;2.70;;;21.40;61.00;;;;;;5092155;28;20479;-53
2023/09/24 00:41:13;;;;;;;7.05;2.78;;;21.40;60.50;;;;;;5091054;28;20102;-55
2023/09/24 00:43:40;;;;;;;3.70;2.10;;;21.40;60.20;;;;;;5091048;28;20058;-55
2023/09/24 00:46:08;;;;;;;5.80;2.50;;;21.40;60.00;;;;;;5092089;28;20024;-51
2023/09/24 00:48:34;;;;;;;8.13;2.70;;;21.40;60.00;;;;;;5091847;28;20024;-55
2023/09/24 00:51:16;;;;;;;8.48;2.60;;;21.40;59.70;;;;;;5092086;28;20395;-51
2023/09/24 00:53:42;;;;;;;5.65;2.53;;;21.40;60.40;;;;;;5090952;28;20043;-52
2023/09/24 00:56:09;;;;;;;4.32;2.30;;;21.40;60.00;;;;;;5090914;28;20028;-48
2023/09/24 00:58:36;;;;;;;4.82;2.33;;;21.40;60.20;;;;;;5090534;28;20039;-55
2023/09/24 01:01:06;;;;;;;5.03;2.28;;;21.30;59.80;;;;;;5091734;28;20044;-53
2023/09/24 01:03:32;;;;;;;5.38;2.70;;;21.40;59.70;;;;;;5092118;28;20103;-54
2023/09/24 01:05:59;;;;;;;6.57;2.60;;;21.40;60.10;;;;;;5090800;28;20056;-52
2023/09/24 01:08:31;;;;;;;5.22;2.45;;;21.40;59.50;;;;;;5090476;28;20522;-53
2023/09/24 01:10:58;;;;;;;4.82;2.15;;;21.40;59.80;;;;;;5091862;28;20035;-49
2023/09/24 01:13:24;;;;;;;6.63;2.72;;;21.40;59.50;;;;;;5091683;28;20024;-54
2023/09/24 01:15:50;;;;;;;6.65;2.80;;;21.30;59.50;;;;;;5091740;28;20487;-53
2023/09/24 01:18:18;;;;;;;5.13;2.33;;;21.40;59.40;;;;;;5091405;28;20048;-54
2023/09/24 01:20:43;;;;;;;5.32;2.60;;;21.30;59.60;;;;;;5089850;28;20039;-55
2023/09/24 01:23:16;;;;;;;6.35;2.60;;;21.40;59.60;;;;;;5091761;28;20017;-50
2023/09/24 01:25:46;;;;;;;9.85;2.72;;;21.40;59.60;;;;;;5091935;28;20020;-53
2023/09/24 01:28:11;;;;;;;3.72;2.33;;;21.30;59.40;;;;;;5090334;28;20117;-47
2023/09/24 01:30:38;;;;;;;4.22;2.30;;;21.30;59.20;;;;;;5091435;28;20113;-53
2023/09/24 01:33:05;;;;;;;5.32;2.70;;;21.30;59.30;;;;;;5091623;28;20081;-55
2023/09/24 01:35:34;;;;;;;3.83;2.17;;;21.30;59.20;;;;;;5090466;28;20036;-51
2023/09/24 01:38:04;;;;;;;3.97;2.03;;;21.30;59.40;;;;;;5090094;28;20032;-55
2023/09/24 01:40:32;;;;;;;5.90;2.70;;;21.30;60.00;;;;;;5091460;28;20035;-55
2023/09/24 01:42:59;;;;;;;7.40;2.53;;;21.30;59.10;;;;;;5091482;28;20035;-54
2023/09/24 01:45:28;;;;;;;5.50;2.58;;;21.30;59.30;;;;;;5090169;28;20032;-55
2023/09/24 01:47:55;;;;;;;7.72;2.30;;;21.30;59.10;;;;;;5090339;28;20020;-54
2023/09/24 01:50:26;;;;;;;4.50;2.20;;;21.30;59.50;;;;;;5091483;28;20085;-51
2023/09/24 01:52:53;;;;;;;3.63;2.10;;;21.30;59.30;;;;;;5091422;28;20024;-52
2023/09/24 01:55:21;;;;;;;4.50;2.28;;;21.30;59.50;;;;;;5090336;28;20059;-53
2023/09/24 01:57:47;;;;;;;4.72;2.30;;;21.30;58.90;;;;;;5090162;28;20032;-50
2023/09/24 02:00:36;;;;;;;4.78;2.05;;;21.30;59.10;;;;;;5089702;28;20024;-53
2023/09/24 02:03:05;;;;;;;5.53;2.60;;;21.30;58.90;;;;;;5089828;28;20163;-55
2023/09/24 02:05:32;;;;;;;4.25;1.98;;;21.30;59.20;;;;;;5090130;28;20020;-54
2023/09/24 02:07:58;;;;;;;7.28;2.33;;;21.30;59.10;;;;;;5089868;28;20048;-55
2023/09/24 02:10:25;;;;;;;4.15;2.20;;;21.30;58.80;;;;;;5090035;28;20412;-55
2023/09/24 02:12:52;;;;;;;5.88;2.17;;;21.30;59.10;;;;;;5091580;28;20102;-55
2023/09/24 02:15:18;;;;;;;4.28;2.08;;;21.30;59.00;;;;;;5091353;28;20031;-55
2023/09/24 02:17:50;;;;;;;3.58;2.28;;;21.30;59.00;;;;;;5091229;28;20034;-55
2023/09/24 02:20:31;;;;;;;5.93;2.15;;;21.30;58.90;;;;;;5090952;28;20115;-55
2023/09/24 02:23:03;;;;;;;4.93;2.22;;;21.30;58.90;;;;;;5090076;28;20491;-53
2023/09/24 02:25:31;;;;;;;9.40;2.28;;;21.30;58.90;;;;;;5091199;28;20024;-54
2023/09/24 02:27:58;;;;;;;4.95;2.13;;;21.30;59.20;;;;;;5090848;28;20046;-55
2023/09/24 02:30:29;;;;;;;6.30;2.17;;;21.30;59.00;;;;;;5091869;28;20050;-55
2023/09/24 02:32:55;;;;;;;4.95;2.25;;;21.30;59.00;;;;;;5093627;28;20032;-54
2023/09/24 02:35:22;;;;;;;4.95;2.17;;;21.30;58.90;;;;;;5093652;28;20032;-55
2023/09/24 02:37:50;;;;;;;5.07;2.00;;;21.30;58.90;;;;;;5094766;28;20024;-55
2023/09/24 02:40:30;;;;;;;5.55;2.20;;;21.30;59.10;;;;;;5094715;28;20028;-55
2023/09/24 02:43:01;;;;;;;4.68;2.17;;;21.30;59.00;;;;;;5094567;28;20028;-55
2023/09/24 02:45:29;;;;;;;6.00;2.08;;;21.30;59.10;;;;;;5094624;28;20111;-55
2023/09/24 02:47:56;;;;;;;2.63;1.77;;;21.30;59.10;;;;;;5093202;28;20051;-55
2023/09/24 02:50:27;;;;;;;5.18;2.20;;;21.30;59.20;;;;;;5093221;28;20028;-55
2023/09/24 02:52:58;;;;;;;3.38;1.95;;;21.30;59.60;;;;;;5094454;28;20089;-52
2023/09/24 02:55:26;;;;;;;2.75;1.80;;;21.20;58.90;;;;;;5094389;28;20024;-55
2023/09/24 02:57:52;;;;;;;7.28;2.20;;;21.20;59.00;;;;;;5094178;28;20402;-54
2023/09/24 03:00:26;;;;;;;4.40;2.03;;;21.20;59.40;;;;;;5094026;28;20028;-53
2023/09/24 03:02:55;;;;;;;10.10;2.10;;;21.20;59.10;;;;;;5093230;28;20109;-51
2023/09/24 03:05:24;;;;;;;4.50;2.28;;;21.30;59.10;;;;;;5094280;28;20031;-54
2023/09/24 03:07:53;;;;;;;5.03;2.05;;;21.20;59.10;;;;;;5093996;28;20022;-55
2023/09/24 03:10:20;;;;;;;5.65;1.90;;;21.30;59.20;;;;;;5092612;28;20075;-55
2023/09/24 03:12:48;;;;;;;6.82;1.90;;;21.20;59.00;;;;;;5092816;28;20028;-53
2023/09/24 03:15:14;;;;;;;5.57;1.80;;;21.20;59.10;;;;;;5092898;28;20085;-55
2023/09/24 03:17:42;;;;;;;5.50;2.10;;;21.20;59.10;;;;;;5092945;28;20095;-53
2023/09/24 03:20:16;;;;;;;3.45;1.77;;;21.20;59.10;;;;;;5093631;28;20110;-55
2023/09/24 03:22:54;;;;;;;5.88;2.20;;;21.20;59.00;;;;;;5093945;28;20016;-54
2023/09/24 03:25:23;;;;;;;7.45;2.30;;;21.20;59.70;;;;;;5092775;28;20028;-55
2023/09/24 03:27:50;;;;;;;6.45;2.00;;;21.20;59.20;;;;;;5092666;28;20027;-54
2023/09/24 03:30:20;;;;;;;5.22;2.10;;;21.20;59.20;;;;;;5092147;28;20024;-54
2023/09/24 03:32:48;;;;;;;3.40;2.00;;;21.20;59.20;;;;;;5092417;28;20039;-53
2023/09/24 03:35:17;;;;;;;4.03;1.75;;;21.20;59.10;;;;;;5092480;28;20034;-55
2023/09/24 03:37:45;;;;;;;6.97;1.90;;;21.20;59.20;;;;;;5092357;28;20499;-54
2023/09/24 03:40:18;;;;;;;4.85;2.13;;;21.20;59.10;;;;;;5091941;28;20419;-54
2023/09/24 03:42:45;;;;;;;6.05;2.08;;;21.20;59.30;;;;;;5091591;28;20506;-54
2023/09/24 03:45:13;;;;;;;2.47;1.80;;;21.20;59.20;;;;;;5092254;28;20490;-54
2023/09/24 03:47:40;;;;;;;4.00;1.70;;;21.20;59.20;;;;;;5092126;28;20028;-55
2023/09/24 03:50:13;;;;;;;4.60;1.88;;;21.20;59.20;;;;;;5091883;28;20029;-54
2023/09/24 03:52:46;;;;;;;4.00;2.05;;;21.20;59.30;;;;;;5092312;28;20400;-53
2023/09/24 03:55:13;;;;;;;5.82;2.05;;;21.20;59.20;;;;;;5093295;28;20020;-54
2023/09/24 03:57:40;;;;;;;6.80;2.20;;;21.20;59.30;;;;;;5093054;28;20044;-53
2023/09/24 04:00:25;;;;;;;5.70;1.85;;;21.20;59.30;;;;;;5092646;28;20024;-54
2023/09/24 04:02:51;;;;;;;5.97;2.00;;;21.10;59.40;;;;;;5091920;28;20076;-55
2023/09/24 04:05:21;;;;;;;4.40;1.60;;;21.20;59.40;;;;;;5091775;28;20024;-54
2023/09/24 04:07:51;;;;;;;4.63;2.25;;;21.20;59.40;;;;;;5091766;28;20028;-54
2023/09/24 04:10:19;;;;;;;3.42;1.90;;;21.10;59.30;;;;;;5092707;28;20058;-52
2023/09/24 04:12:47;;;;;;;4.00;1.88;;;21.10;59.40;;;;;;5092810;28;20043;-53
2023/09/24 04:15:18;;;;;;;5.15;2.28;;;21.10;59.40;;;;;;5092906;28;20020;-53
2023/09/24 04:17:46;;;;;;;5.65;2.40;;;21.10;59.60;;;;;;5092981;28;20206;-51
2023/09/24 04:20:15;;;;;;;9.57;2.20;;;21.10;60.10;;;;;;5092325;28;20174;-53
2023/09/24 04:22:44;;;;;;;10.05;2.33;;;21.10;59.50;;;;;;5092746;28;20020;-53
2023/09/24 04:25:15;;;;;;;4.68;2.20;;;21.10;59.60;;;;;;5092625;28;20515;-53
2023/09/24 04:27:42;;;;;;;6.32;2.15;;;21.20;59.60;;;;;;5092680;28;20034;-52
2023/09/24 04:30:15;;;;;;;4.50;2.30;;;21.20;59.60;;;;;;5092093;28;20031;-54
2023/09/24 04:32:53;;;;;;;4.63;2.00;;;21.20;59.70;;;;;;5092580;28;20024;-55
2023/09/24 04:35:20;;;;;;;3.22;1.80;;;21.20;59.80;;;;;;5092442;28;20024;-55
2023/09/24 04:37:47;;;;;;;5.95;2.22;;;21.20;59.60;;;;;;5092363;28;20497;-50
2023/09/24 04:40:14;;;;;;;5.88;2.22;;;21.20;59.70;;;;;;5091953;28;20028;-52
2023/09/24 04:42:45;;;;;;;9.30;2.00;;;21.20;59.70;;;;;;5092511;28;20108;-48
2023/09/24 04:45:12;;;;;;;8.05;2.25;;;21.20;59.60;;;;;;5092294;28;20035;-54
2023/09/24 04:47:39;;;;;;;6.25;2.58;;;21.20;59.70;;;;;;5092303;28;20028;-52
2023/09/24 04:50:07;;;;;;;6.75;2.17;;;21.20;59.70;;;;;;5091768;28;20047;-55
2023/09/24 04:52:33;;;;;;;4.93;2.28;;;21.20;59.70;;;;;;5092087;28;20472;-51
2023/09/24 04:55:00;;;;;;;6.80;2.80;;;21.20;59.80;;;;;;5091099;28;20030;-54
2023/09/24 04:57:26;;;;;;;5.28;2.72;;;21.20;59.70;;;;;;5092111;28;20511;-48
2023/09/24 04:59:53;;;;;;;4.72;2.45;;;21.20;59.80;;;;;;5091658;28;20031;-54
2023/09/24 05:02:23;;;;;;;8.57;2.60;;;21.20;59.80;;;;;;5091972;28;20389;-54
2023/09/24 05:04:49;;;;;;;;;;;21.20;59.90;;;;;;5092849;28;20020;-52
2023/09/24 05:07:16;;;;;;;5.15;2.53;;;21.20;59.90;;;;;;5091937;28;20409;-52
2023/09/24 05:09:43;;;;;;;5.72;2.33;;;21.20;59.90;;;;;;5091640;28;20055;-54
2023/09/24 05:12:10;;;;;;;6.32;2.78;;;21.20;59.90;;;;;;5091895;28;20056;-52
2023/09/24 05:14:36;;;;;;;5.10;2.50;;;21.20;59.90;;;;;;5091928;28;20118;-54
2023/09/24 05:17:02;;;;;;;6.68;2.53;;;21.20;59.90;;;;;;5091823;28;20106;-53
2023/09/24 05:19:28;;;;;;;4.95;2.67;;;21.20;60.00;;;;;;5091682;28;20027;-55
2023/09/24 05:21:54;;;;;;;5.75;2.53;;;21.10;59.90;;;;;;5092051;28;20031;-53
2023/09/24 05:24:19;;;;;;;5.88;2.60;;;21.10;60.00;;;;;;5091835;28;20052;-55
2023/09/24 05:26:46;;;;;;;8.23;2.53;;;21.10;60.00;;;;;;5091785;28;20070;-54
2023/09/24 05:29:12;;;;;;;6.05;2.25;;;21.10;60.10;;;;;;5091504;28;20031;-55
2023/09/24 05:31:38;;;;;;;4.78;2.47;;;21.10;60.10;;;;;;5106559;22;20412;-48
2023/09/24 05:34:05;;;;;;;7.55;3.00;;;21.10;60.20;;;;;;5079405;28;20100;-52
2023/09/24 05:36:32;;;;;;;5.32;2.80;;;21.10;60.20;;;;;;5071423;28;20077;-49
2023/09/24 05:38:58;;;;;;;4.88;2.60;;;21.10;60.90;;;;;;5070976;28;20093;-47
2023/09/24 05:41:25;;;;;;;7.72;2.58;;;21.10;60.20;;;;;;5080413;28;20483;-53
2023/09/24 05:43:53;;;;;;;6.18;3.10;;;21.10;60.30;;;;;;5073643;28;20028;-51
2023/09/24 05:46:19;;;;;;;7.28;2.95;;;21.10;60.30;;;;;;5091623;28;20026;-51
2023/09/24 05:48:45;;;;;;;6.63;2.90;;;21.10;60.30;;;;;;5091266;28;20399;-50
2023/09/24 05:51:11;;;;;;;6.28;2.45;;;21.10;60.30;;;;;;5091416;28;20063;-51
2023/09/24 05:53:37;;;;;;;7.65;3.10;;;21.10;60.40;;;;;;5073421;28;20113;-54
2023/09/24 05:56:03;;;;;;;7.60;3.05;;;21.10;60.40;;;;;;5091448;28;20153;-55
2023/09/24 05:58:32;;;;;;;4.78;2.50;;;21.10;60.40;;;;;;5091138;28;20029;-49
2023/09/24 06:00:58;;;;;;;8.35;2.78;;;21.10;60.50;;;;;;5094226;28;20479;-53
2023/09/24 06:03:27;;;;;;;5.97;2.58;;;21.10;60.50;;;;;;5111704;28;20538;-55
2023/09/24 06:05:53;;;;;;;6.07;2.50;;;21.10;60.40;;;;;;5113347;28;20034;-56
2023/09/24 06:08:20;;;;;;;5.97;2.78;;;21.10;60.60;;;;;;5115358;28;20597;-46
2023/09/24 06:10:46;;;;;;;5.25;2.47;;;21.10;60.40;;;;;;5115492;28;20128;-52
2023/09/24 06:13:14;;;;;;;6.28;2.80;;;21.10;60.40;;;;;;5097280;28;20024;-52
2023/09/24 06:15:41;;;;;;;6.10;2.47;;;21.10;60.50;;;;;;5097389;28;20039;-55
2023/09/24 06:18:07;;;;;;;4.50;2.42;;;21.10;60.40;;;;;;5115194;28;20029;-54
2023/09/24 06:20:38;;;;;;;5.63;2.30;;;21.10;60.40;;;;;;5115192;28;20088;-49
2023/09/24 06:23:04;;;;;;;6.75;2.30;;;21.10;60.50;;;;;;5115294;28;20073;-54
2023/09/24 06:25:30;;;;;;;6.55;2.75;;;21.10;61.00;;;;;;5097151;28;20019;-50
2023/09/24 06:27:56;;;;;;;6.07;2.25;;;21.10;60.50;;;;;;5114733;28;20039;-49
2023/09/24 06:30:22;;;;;;;4.63;2.65;;;21.10;60.40;;;;;;5114939;28;20030;-53
2023/09/24 06:32:48;;;;;;;6.25;2.88;;;21.10;60.50;;;;;;5096878;28;20028;-50
2023/09/24 06:35:14;;;;;;;7.63;2.65;;;21.10;60.50;;;;;;5115085;28;20024;-47
2023/09/24 06:37:39;;;;;;;9.15;2.75;;;21.10;60.60;;;;;;5115432;28;20059;-53
2023/09/24 06:40:08;;;;;;;5.97;2.78;;;21.10;60.60;;;;;;5114650;28;20055;-46
2023/09/24 06:42:34;;;;;;;7.07;2.58;;;21.10;60.60;;;;;;5114873;28;20092;-51
2023/09/24 06:45:00;;;;;;;7.95;2.75;;;21.10;60.60;;;;;;5115054;28;20482;-48
2023/09/24 06:47:25;;;;;;;5.40;2.95;;;21.00;60.60;;;;;;5115064;28;20020;-50
2023/09/24 06:49:51;;;;;;;10.10;2.78;;;21.10;60.60;;;;;;5114606;28;20049;-47
2023/09/24 06:52:17;;;;;;;4.30;2.30;;;21.10;60.70;;;;;;5115126;28;20027;-45
2023/09/24 06:54:43;;;;;;;5.43;2.70;;;21.10;60.70;;;;;;5114636;28;20436;-51
2023/09/24 06:57:09;;;;;;;6.45;2.60;;;21.00;60.60;;;;;;5114653;28;20031;-51
2023/09/24 06:59:34;;;;;;;7.82;2.53;;;21.10;60.90;;;;;;5114330;28;20115;-53
2023/09/24 07:02:00;;;;;;;6.60;2.35;;;21.10;61.20;;;;;;5114825;28;20394;-51
2023/09/24 07:04:26;;;;;;;9.10;2.60;;;21.20;62.30;;;;;;5114544;28;20035;-52
2023/09/24 07:06:53;;;;;;;8.15;3.13;;;21.20;61.60;;;;;;5114575;28;20023;-50
2023/09/24 07:09:19;;;;;;;7.50;2.13;;;21.20;61.90;;;;;;5114168;28;20035;-53
2023/09/24 07:11:45;;;;;;;7.50;2.63;;;21.30;61.90;;;;;;5114306;28;20023;-48
2023/09/24 07:14:11;;;;;;;8.27;2.97;;;21.30;62.30;;;;;;5114478;28;20585;-47
2023/09/24 07:16:36;;;;;;;9.25;3.30;;;21.30;63.50;;;;;;5095148;28;20030;-49
2023/09/24 07:19:03;;;;;;;12.20;3.50;;;21.40;63.20;;;;;;5113710;28;20027;-51
2023/09/24 07:21:30;;;;;;;8.00;2.80;;;21.40;63.40;;;;;;5114031;28;20027;-48
2023/09/24 07:23:58;;;;;;;11.55;2.97;;;21.30;64.60;;;;;;5114198;28;20051;-52
2023/09/24 07:26:25;;;;;;;9.52;2.95;;;21.40;65.20;;;;;;5079284;28;20016;-50
2023/09/24 07:28:52;;;;;;;14.52;2.90;;;21.40;63.70;;;;;;5113952;28;20028;-46
2023/09/24 07:31:23;;;;;;;28.77;3.58;;;21.40;63.10;;;;;;5113913;28;20035;-48
2023/09/24 07:33:54;;;;;;;24.83;3.75;;;21.40;63.20;;;;;;5113960;28;20035;-47
2023/09/24 07:36:20;;;;;;;12.88;3.33;;;21.40;63.30;;;;;;5113440;28;20346;-51
2023/09/24 07:38:49;;;;;;;19.23;3.20;;;21.30;63.30;;;;;;5113612;28;20039;-51
2023/09/24 07:41:16;;;;;;;10.13;3.23;;;21.30;63.50;;;;;;5113738;28;20051;-47
2023/09/24 07:43:42;;;;;;;11.05;2.45;;;21.30;63.30;;;;;;5113877;28;20639;-46
2023/09/24 07:46:12;;;;;;;13.77;2.78;;;21.30;63.40;;;;;;5113792;28;20031;-47
2023/09/24 07:48:45;;;;;;;7.47;2.40;;;21.30;63.40;;;;;;5113434;28;20098;-46
2023/09/24 07:51:11;;;;;;;7.32;2.45;;;21.30;63.30;;;;;;5113695;28;20058;-49
2023/09/24 07:53:37;;;;;;;8.18;2.30;;;21.20;63.80;;;;;;5113890;28;20483;-54
2023/09/24 07:56:09;;;;;;;7.90;2.20;;;21.20;63.20;;;;;;5113584;28;20058;-50
2023/09/24 07:58:36;;;;;;;7.47;2.75;;;21.20;63.20;;;;;;5113350;28;20024;-54
2023/09/24 08:01:07;;;;;;;7.53;2.67;;;21.20;63.10;;;;;;5095244;28;20565;-52
2023/09/24 08:03:36;;;;;;;5.03;2.03;;;21.20;63.10;;;;;;5113769;28;20040;-48
2023/09/24 08:06:04;;;;;;;7.32;2.50;;;21.20;63.00;;;;;;5113465;28;20049;-49
2023/09/24 08:08:30;;;;;;;6.68;2.40;;;21.20;63.00;;;;;;5095034;28;20028;-53
2023/09/24 08:10:57;;;;;;;6.82;2.30;;;21.20;63.00;;;;;;5095258;28;20417;-49
2023/09/24 08:13:23;;;;;;;4.65;2.40;;;21.20;63.00;;;;;;5113637;28;20398;-54
2023/09/24 08:15:49;;;;;;;6.18;2.03;;;21.20;62.90;;;;;;5113428;28;20391;-54
2023/09/24 08:18:17;;;;;;;7.20;2.25;;;21.20;62.90;;;;;;5095046;28;20368;-54
2023/09/24 08:20:43;;;;;;;4.47;2.38;;;21.20;62.90;;;;;;5112959;28;20032;-54
2023/09/24 08:23:09;;;;;;;6.13;2.55;;;21.20;62.90;;;;;;5113016;28;20112;-52
2023/09/24 08:25:35;;;;;;;4.70;2.35;;;21.20;62.80;;;;;;5113081;28;20293;-49
2023/09/24 08:28:02;;;;;;;3.88;2.20;;;21.20;62.80;;;;;;5112923;28;20027;-50
2023/09/24 08:30:30;;;;;;;5.03;2.40;;;21.20;62.80;;;;;;5112800;28;20035;-51
2023/09/24 08:32:57;;;;;;;6.45;2.20;;;21.20;62.70;;;;;;5094698;28;20031;-49
2023/09/24 08:35:23;;;;;;;4.85;2.22;;;21.20;62.70;;;;;;5112994;28;20021;-46
2023/09/24 08:37:50;;;;;;;4.68;2.17;;;21.20;62.60;;;;;;5112882;28;20111;-52
2023/09/24 08:40:16;;;;;;;3.92;1.92;;;21.20;62.60;;;;;;5112431;28;20022;-51
2023/09/24 08:42:47;;;;;;;5.45;2.00;;;21.20;62.60;;;;;;5112686;28;20024;-54
2023/09/24 08:45:23;;;;;;;7.50;2.08;;;21.20;62.60;;;;;;5112630;28;20028;-53
2023/09/24 08:47:49;;;;;;;4.88;2.05;;;21.20;62.50;;;;;;5112595;28;20016;-52
2023/09/24 08:50:16;;;;;;;8.27;2.72;;;21.20;62.60;;;;;;5112231;28;20024;-54
2023/09/24 08:52:44;;;;;;;6.70;1.92;;;21.20;62.50;;;;;;5112523;28;20023;-52
2023/09/24 08:55:11;;;;;;;4.60;2.10;;;21.20;62.40;;;;;;5112475;28;20034;-48
2023/09/24 08:57:43;;;;;;;6.15;2.25;;;21.20;62.40;;;;;;5112519;28;20020;-53
2023/09/24 09:00:11;;;;;;;7.13;2.25;;;21.20;62.40;;;;;;5112139;28;20024;-52
2023/09/24 09:02:41;;;;;;;5.05;1.92;;;21.30;62.40;;;;;;5112653;28;20027;-54
2023/09/24 09:05:11;;;;;;;;;;;21.30;62.20;;;;;;5112757;28;20114;-52
2023/09/24 09:07:52;;;;;;;4.97;2.10;;;21.30;62.30;;;;;;5112339;28;19908;-53
2023/09/24 09:10:24;;;;;;;3.33;1.90;;;21.30;62.20;;;;;;5112131;28;20031;-49
2023/09/24 09:12:50;;;;;;;6.25;1.90;;;21.30;63.00;;;;;;5112196;28;20031;-50
2023/09/24 09:15:17;;;;;;;3.25;1.73;;;21.40;62.20;;;;;;5112185;28;20019;-49
2023/09/24 09:17:42;;;;;;;5.22;2.33;;;21.40;62.20;;;;;;5112099;28;20026;-52
2023/09/24 09:20:09;;;;;;;3.28;1.70;;;21.30;62.10;;;;;;5112068;28;20023;-52
2023/09/24 09:22:35;;;;;;;4.60;1.80;;;21.40;62.60;;;;;;5111837;28;20028;-52
2023/09/24 09:25:09;;;;;;;3.83;1.88;;;21.40;62.30;;;;;;5112233;28;20433;-51
2023/09/24 09:27:35;;;;;;;5.28;1.77;;;21.30;62.20;;;;;;5112024;28;20107;-51
2023/09/24 09:30:15;;;;;;;3.83;1.90;;;21.40;62.30;;;;;;5111724;28;20054;-51
2023/09/24 09:32:44;;;;;;;;;;;21.40;62.50;;;;;;5112220;28;20035;-48
2023/09/24 09:35:11;;;;;;;4.03;1.85;;;21.40;62.40;;;;;;5111922;28;19915;-53
2023/09/24 09:37:38;;;;;;;5.55;1.50;;;21.40;62.40;;;;;;5112102;28;20034;-49
2023/09/24 09:40:06;;;;;;;5.82;1.90;;;21.40;62.30;;;;;;5112018;28;20028;-51
2023/09/24 09:42:36;;;;;;;3.10;1.70;;;21.40;62.50;;;;;;5116162;28;20035;-48
2023/09/24 09:45:09;;;;;;;4.85;2.00;;;21.40;62.50;;;;;;5116192;28;20509;-53
2023/09/24 09:47:57;;;;;;;5.55;1.80;;;21.30;62.50;;;;;;5097834;28;20024;-46
2023/09/24 09:50:25;;;;;;;6.28;1.90;;;21.30;62.50;;;;;;5115940;28;20027;-50
2023/09/24 09:52:53;;;;;;;3.30;1.85;;;21.30;62.50;;;;;;5116006;28;20023;-49
2023/09/24 09:55:20;;;;;;;2.38;1.52;;;21.30;62.50;;;;;;5098074;28;20096;-47
2023/09/24 09:57:47;;;;;;;4.07;1.60;;;21.30;62.40;;;;;;5096969;28;20032;-47
2023/09/24 10:00:17;;;;;;;3.05;1.67;;;21.40;62.40;;;;;;5115966;28;20436;-49
2023/09/24 10:02:44;;;;;;;4.78;1.98;;;21.40;62.40;;;;;;5115707;28;20092;-49
2023/09/24 10:05:13;;;;;;;3.55;1.83;;;21.30;62.30;;;;;;5115880;28;20028;-50
2023/09/24 10:07:40;;;;;;;3.65;1.80;;;21.40;62.30;;;;;;5115793;28;20032;-52
2023/09/24 10:10:31;;;;;;;2.90;1.50;;;21.40;62.30;;;;;;5115460;28;20016;-53
2023/09/24 10:13:02;;;;;;;4.95;1.67;;;21.40;62.40;;;;;;5115616;28;20080;-52
2023/09/24 10:15:31;;;;;;;4.65;1.70;;;21.40;62.30;;;;;;5115603;28;20571;-47
2023/09/24 10:18:11;;;;;;;6.55;1.88;;;21.40;62.40;;;;;;5115363;28;20028;-53
2023/09/24 10:20:49;;;;;;;3.40;1.70;;;21.40;62.60;;;;;;5115371;28;20032;-53
2023/09/24 10:23:30;;;;;;;2.90;1.77;;;21.50;62.60;;;;;;5115416;28;20028;-47
2023/09/24 10:26:05;;;;;;;4.65;1.83;;;21.50;62.70;;;;;;5115327;28;20452;-47
2023/09/24 10:28:48;;;;;;;1.80;1.40;;;21.50;62.50;;;;;;5097042;28;20064;-51
2023/09/24 10:31:17;;;;;;;2.92;1.58;;;21.50;62.70;;;;;;5115091;28;20046;-49
2023/09/24 10:34:02;;;;;;;2.45;1.63;;;21.40;62.80;;;;;;5114997;28;20485;-51
2023/09/24 10:36:31;;;;;;;4.22;1.77;;;21.50;62.50;;;;;;5115439;28;20372;-52
2023/09/24 10:39:13;;;;;;;3.53;1.70;;;21.40;62.60;;;;;;5114759;28;20034;-53
2023/09/24 10:42:08;;;;;;;2.15;1.50;;;21.40;62.30;;;;;;5114962;28;20032;-49
2023/09/24 10:44:35;;;;;;;1.95;1.50;;;21.50;62.30;;;;;;5097035;28;20016;-51
2023/09/24 10:47:34;;;;;;;3.88;1.65;;;21.40;62.30;;;;;;5115089;28;20448;-49
2023/09/24 10:50:06;;;;;;;5.83;1.93;;;21.40;62.30;;;;;;5114935;28;20112;-52
2023/09/24 10:52:51;;;;;;;4.70;1.75;;;21.40;62.30;;;;;;5079673;28;20031;-52
2023/09/24 10:55:18;;;;;;;3.83;1.52;;;21.40;62.30;;;;;;5096847;28;20032;-52
2023/09/24 10:57:50;;;;;;;3.10;1.48;;;21.40;62.40;;;;;;5114714;28;20028;-51
2023/09/24 11:00:20;;;;;;;3.60;1.60;;;21.40;62.50;;;;;;5114551;28;20494;-47
2023/09/24 11:02:56;;;;;;;2.63;1.67;;;21.40;62.40;;;;;;5114551;28;20051;-46
2023/09/24 11:05:22;;;;;;;2.17;1.20;;;21.40;62.30;;;;;;5114734;28;20043;-52
2023/09/24 11:07:48;;;;;;;3.55;1.30;;;21.40;62.40;;;;;;5114796;28;20103;-47
2023/09/24 11:10:18;;;;;;;4.30;1.50;;;21.40;62.80;;;;;;5114355;28;20539;-50
2023/09/24 11:13:00;;;;;;;2.83;1.40;;;21.40;62.50;;;;;;5114773;28;20448;-54
2023/09/24 11:15:30;;;;;;;4.85;1.50;;;21.40;62.60;;;;;;5114313;28;20035;-53
2023/09/24 11:17:56;;;;;;;3.17;1.60;;;21.40;62.50;;;;;;5114236;28;20118;-49
2023/09/24 11:20:22;;;;;;;3.88;1.65;;;21.40;62.60;;;;;;5113965;28;20102;-52
2023/09/24 11:22:59;;;;;;;3.03;1.60;;;21.40;62.80;;;;;;5114195;28;20035;-55
2023/09/24 11:25:26;;;;;;;4.03;1.60;;;21.40;63.40;;;;;;5114323;28;20026;-53
2023/09/24 11:27:53;;;;;;;2.78;1.50;;;21.30;62.70;;;;;;5114079;28;20019;-52
2023/09/24 11:30:22;;;;;;;2.10;1.35;;;21.30;62.80;;;;;;5113819;28;20035;-51
2023/09/24 11:32:50;;;;;;;2.60;1.70;;;21.30;62.70;;;;;;5168779;22;20401;-52
2023/09/24 11:35:18;;;;;;;4.28;1.40;;;21.30;62.80;;;;;;5133335;27;20026;-52
2023/09/24 11:37:59;;;;;;;5.05;1.40;;;21.30;62.90;;;;;;5134614;27;20092;-54
2023/09/24 11:40:38;;;;;;;3.65;1.70;;;21.30;62.70;;;;;;5134507;27;20026;-53
2023/09/24 11:43:15;;;;;;;3.58;1.80;;;21.30;62.60;;;;;;5134445;27;20402;-51
2023/09/24 11:45:48;;;;;;;3.30;1.30;;;21.30;62.60;;;;;;5134829;27;20510;-49
2023/09/24 11:48:16;;;;;;;4.07;1.40;;;21.30;62.60;;;;;;5134021;27;20027;-53
2023/09/24 11:50:45;;;;;;;5.20;1.60;;;21.30;62.50;;;;;;5134191;27;20124;-51
2023/09/24 11:53:12;;;;;;;3.67;1.60;;;21.30;62.40;;;;;;5134427;27;20027;-52
2023/09/24 11:55:38;;;;;;;2.90;1.50;;;21.30;62.40;;;;;;5134140;27;20038;-51
2023/09/24 11:58:05;;;;;;;2.90;1.52;;;21.30;62.40;;;;;;5133928;27;20023;-55
2023/09/24 12:00:33;;;;;;;2.95;1.50;;;21.30;62.30;;;;;;5134024;27;20049;-51
2023/09/24 12:03:00;;;;;;;2.60;1.42;;;21.30;62.30;;;;;;5133398;27;20070;-50
2023/09/24 12:05:27;;;;;;;3.05;1.40;;;21.30;62.20;;;;;;5133954;27;20027;-55
2023/09/24 12:07:54;;;;;;;2.20;1.60;;;21.30;62.30;;;;;;5133804;27;20023;-55
2023/09/24 12:10:21;;;;;;;2.22;1.40;;;21.30;62.40;;;;;;5133754;27;20019;-52
2023/09/24 12:12:48;;;;;;;2.13;1.38;;;21.30;62.40;;;;;;5133732;27;20027;-54
2023/09/24 12:15:14;;;;;;;1.80;1.25;;;21.30;62.20;;;;;;5133773;27;20027;-52
2023/09/24 12:17:41;;;;;;;2.72;1.48;;;21.30;62.20;;;;;;5133756;27;20027;-49
2023/09/24 12:20:08;;;;;;;2.85;1.50;;;21.30;62.10;;;;;;5133575;27;20539;-54
2023/09/24 12:22:34;;;;;;;2.85;1.48;;;21.30;62.10;;;;;;5133561;27;20465;-50
2023/09/24 12:25:00;;;;;;;3.50;1.38;;;21.30;62.10;;;;;;5133627;27;20125;-53
2023/09/24 12:27:29;;;;;;;2.33;1.45;;;21.30;62.10;;;;;;5115306;27;20047;-53
2023/09/24 12:29:55;;;;;;;1.55;1.13;;;21.30;62.00;;;;;;5133178;27;20475;-54
2023/09/24 12:32:23;;;;;;;3.50;1.58;;;21.30;62.50;;;;;;5133380;27;20072;-50
2023/09/24 12:34:50;;;;;;;3.58;1.35;;;21.30;62.00;;;;;;5133408;27;20554;-55
2023/09/24 12:37:16;;;;;;;3.58;1.50;;;21.30;62.10;;;;;;5133353;27;20027;-52
2023/09/24 12:39:42;;;;;;;2.92;1.40;;;21.30;62.10;;;;;;5133178;27;20027;-54
2023/09/24 12:42:07;;;;;;;3.08;1.50;;;21.30;62.20;;;;;;5133240;27;20049;-51
2023/09/24 12:44:33;;;;;;;3.20;1.58;;;21.30;62.00;;;;;;5133187;27;20517;-54
2023/09/24 12:46:59;;;;;;;2.92;1.58;;;21.30;62.10;;;;;;5133592;27;20460;-55
2023/09/24 12:49:25;;;;;;;1.73;1.30;;;21.40;62.10;;;;;;5133409;27;20058;-53
2023/09/24 12:51:51;;;;;;;3.13;1.50;;;21.30;62.10;;;;;;5133379;27;20047;-53
2023/09/24 12:54:17;;;;;;;2.03;1.30;;;21.40;62.20;;;;;;5133184;27;20031;-55
2023/09/24 12:56:43;;;;;;;3.75;1.40;;;21.30;61.90;;;;;;5133050;27;20561;-53